Domov
logo

Sponzorovaný hosting od WebSupport.sk
Vlastný virtuálny server od 5,65 € od WebSupport.sk

Aktuálne počasie

LZIB - letisko Bratislava

Hodnoty namerané: 24.04.2019, 12:00 SELČ
Aktuálny čas: 24.04.2019, 12:05 SELČ
Aktualizované: pred 5 min.
Teplota: 18°C
Rosný bod: 11°C
Vietor: 31 km/h 120° (VJV)
Dohľadnosť: viac ako 10 km
Stav počasia: bez zrážok
Oblačnosť: malá oblačnosť na 701 m, polooblačno na 914 m
Základňa oblačnosti: 701 m
Vlhkosť vzduchu: 64 %
Tlak vzduchu: 1013 hPa
METAR: LZIB 241000Z 12017KT 9999 FEW023 SCT030 18/11 Q1013 NOSIG

LZKZ - letisko Košice

Hodnoty namerané: 24.04.2019, 12:00 SELČ
Aktuálny čas: 24.04.2019, 12:05 SELČ
Aktualizované: pred 5 min.
Teplota: 13°C
Rosný bod: 7°C
Vietor: 6 km/h 90° (V) kolíše v rozsahu 40°-170° (SV-J)
Dohľadnosť: viac ako 10 km
Stav počasia: bez zrážok
Oblačnosť: oblačno na 1372 m
Základňa oblačnosti: 1372 m
Vlhkosť vzduchu: 67 %
Tlak vzduchu: 1021 hPa
METAR: LZKZ 241000Z 09003KT 040V170 9999 BKN045 13/07 Q1021 NOSIG

LZPP - letisko Piešťany

Hodnoty namerané: 24.04.2019, 12:00 SELČ
Aktuálny čas: 24.04.2019, 12:05 SELČ
Aktualizované: pred 5 min.
Teplota: 16°C
Rosný bod: 9°C
Vietor: 31 km/h 150° (JJV)
Dohľadnosť: viac ako 10 km
Stav počasia: bez zrážok
Oblačnosť: malá oblačnosť na 1219 m
Základňa oblačnosti: 1219 m
Vlhkosť vzduchu: 63 %
Tlak vzduchu: 1014 hPa
METAR: LZPP 241000Z 15017KT 9999 FEW040 16/09 Q1014

LZTT - letisko Poprad Tatry

Hodnoty namerané: 24.04.2019, 12:00 SELČ
Aktuálny čas: 24.04.2019, 12:05 SELČ
Aktualizované: pred 5 min.
Teplota: 8°C, pocitová teplota 6°C
Rosný bod: 7°C
Vietor: 13 km/h 90° (V)
Dohľadnosť: viac ako 10 km
Stav počasia: bez zrážok
Oblačnosť: malá oblačnosť na 213 m, oblačno na 488 m, zamračené na 1615 m
Základňa oblačnosti: 213 m
Vlhkosť vzduchu: 93 %
Tlak vzduchu: 1020 hPa
METAR: LZTT 241000Z 09007KT 9999 FEW007 BKN016 OVC053 08/07 Q1020 NOSIG

LZSL - letisko Sliač

Hodnoty namerané: 24.04.2019, 12:00 SELČ
Aktuálny čas: 24.04.2019, 12:05 SELČ
Aktualizované: pred 5 min.
Teplota: 11°C
Rosný bod: 8°C
Vietor: 9 km/h 50° (SV) kolíše v rozsahu 20°-100° (SSV-V)
Dohľadnosť: viac ako 10 km
Stav počasia: bez zrážok
Oblačnosť: oblačno na 549 m, zamračené na 914 m
Základňa oblačnosti: 549 m
Vlhkosť vzduchu: 82 %
Tlak vzduchu: 1019 hPa
METAR: LZSL 241000Z 05005KT 020V100 9999 BKN018 OVC030 11/08 Q1019

LZZI - letisko Žilina

Hodnoty namerané: 24.04.2019, 12:00 SELČ
Aktuálny čas: 24.04.2019, 12:05 SELČ
Aktualizované: pred 5 min.
Teplota: 16°C
Rosný bod: 8°C
Vietor: 22 km/h 150° (JJV) kolíše v rozsahu 120°-180° (VJV-J)
Dohľadnosť: viac ako 10 km
Stav počasia: bez zrážok
Oblačnosť: polooblačno na 1829 m
Základňa oblačnosti: 1829 m
Vlhkosť vzduchu: 59 %
Tlak vzduchu: 1015 hPa
METAR: LZZI 241000Z 15012KT 120V180 9999 SCT060 16/08 Q1015

POZNÁMKY:

SEČ - stredoeurópsky čas (UTC+1hod.)

SELČ - stredoeurópsky letný čas (UTC+2hod.)

UTC - univerzálny svetový čas, GMT, ZULU

METAR - sú pravidelné kódované letecké meteorologické správy. Tie zostavujú a zverejňujú meteorologické stanice letísk v polhodinových/hodinových intervaloch. Na tejto stránke správy METAR zo slovenských letísk nájdete už v dekódovanej podobe.

hore